sensor_id;sensor_type;location;lat;lon;timestamp;P1;durP1;ratioP1;P2;durP2;ratioP2
56285;SDS011;42191;47.562;9.686;2023-02-22T00:01:17;43.08;;;40.17;;
56285;SDS011;42191;47.562;9.686;2023-02-22T00:03:47;44.25;;;41.05;;
56285;SDS011;42191;47.562;9.686;2023-02-22T00:06:16;44.22;;;41.13;;
56285;SDS011;42191;47.562;9.686;2023-02-22T00:08:45;41.75;;;38.88;;
56285;SDS011;42191;47.562;9.686;2023-02-22T00:11:12;43.95;;;40.85;;
56285;SDS011;42191;47.562;9.686;2023-02-22T00:13:39;41.60;;;38.80;;
56285;SDS011;42191;47.562;9.686;2023-02-22T00:16:09;42.22;;;39.42;;
56285;SDS011;42191;47.562;9.686;2023-02-22T00:18:42;42.33;;;39.45;;
56285;SDS011;42191;47.562;9.686;2023-02-22T00:21:09;41.60;;;38.75;;
56285;SDS011;42191;47.562;9.686;2023-02-22T00:23:38;41.85;;;39.03;;
56285;SDS011;42191;47.562;9.686;2023-02-22T00:26:10;43.15;;;40.15;;
56285;SDS011;42191;47.562;9.686;2023-02-22T00:28:47;43.58;;;40.65;;
56285;SDS011;42191;47.562;9.686;2023-02-22T00:31:15;42.25;;;39.30;;
56285;SDS011;42191;47.562;9.686;2023-02-22T00:33:41;42.22;;;39.35;;
56285;SDS011;42191;47.562;9.686;2023-02-22T00:36:08;41.53;;;38.83;;
56285;SDS011;42191;47.562;9.686;2023-02-22T00:38:36;43.25;;;40.25;;
56285;SDS011;42191;47.562;9.686;2023-02-22T00:41:02;40.83;;;38.13;;
56285;SDS011;42191;47.562;9.686;2023-02-22T00:43:28;41.72;;;38.97;;
56285;SDS011;42191;47.562;9.686;2023-02-22T00:45:55;43.38;;;40.25;;
56285;SDS011;42191;47.562;9.686;2023-02-22T00:48:22;42.10;;;39.28;;
56285;SDS011;42191;47.562;9.686;2023-02-22T00:50:48;41.13;;;38.42;;
56285;SDS011;42191;47.562;9.686;2023-02-22T00:53:14;41.63;;;38.75;;
56285;SDS011;42191;47.562;9.686;2023-02-22T00:55:40;42.22;;;39.38;;
56285;SDS011;42191;47.562;9.686;2023-02-22T00:58:06;41.97;;;38.88;;
56285;SDS011;42191;47.562;9.686;2023-02-22T01:00:34;42.13;;;39.05;;
56285;SDS011;42191;47.562;9.686;2023-02-22T01:03:02;44.33;;;41.13;;
56285;SDS011;42191;47.562;9.686;2023-02-22T01:05:32;42.25;;;39.25;;
56285;SDS011;42191;47.562;9.686;2023-02-22T01:07:59;43.13;;;40.03;;
56285;SDS011;42191;47.562;9.686;2023-02-22T01:10:27;40.35;;;37.75;;
56285;SDS011;42191;47.562;9.686;2023-02-22T01:12:54;44.63;;;41.47;;
56285;SDS011;42191;47.562;9.686;2023-02-22T01:15:22;40.80;;;38.15;;
56285;SDS011;42191;47.562;9.686;2023-02-22T01:17:53;44.25;;;41.30;;
56285;SDS011;42191;47.562;9.686;2023-02-22T01:20:20;42.13;;;39.20;;
56285;SDS011;42191;47.562;9.686;2023-02-22T01:22:47;41.53;;;38.83;;
56285;SDS011;42191;47.562;9.686;2023-02-22T01:25:16;42.42;;;39.53;;
56285;SDS011;42191;47.562;9.686;2023-02-22T01:27:47;39.80;;;37.27;;
56285;SDS011;42191;47.562;9.686;2023-02-22T01:30:14;43.35;;;40.15;;
56285;SDS011;42191;47.562;9.686;2023-02-22T01:32:44;41.50;;;38.80;;
56285;SDS011;42191;47.562;9.686;2023-02-22T01:35:12;42.25;;;39.38;;
56285;SDS011;42191;47.562;9.686;2023-02-22T01:37:42;44.92;;;41.88;;
56285;SDS011;42191;47.562;9.686;2023-02-22T01:40:10;40.97;;;38.22;;
56285;SDS011;42191;47.562;9.686;2023-02-22T01:42:45;40.50;;;37.90;;
56285;SDS011;42191;47.562;9.686;2023-02-22T01:47:55;42.78;;;39.88;;
56285;SDS011;42191;47.562;9.686;2023-02-22T01:50:35;40.85;;;38.15;;
56285;SDS011;42191;47.562;9.686;2023-02-22T01:53:03;41.72;;;38.97;;
56285;SDS011;42191;47.562;9.686;2023-02-22T01:55:31;43.35;;;40.45;;
56285;SDS011;42191;47.562;9.686;2023-02-22T01:57:58;45.00;;;41.58;;
56285;SDS011;42191;47.562;9.686;2023-02-22T02:00:25;41.83;;;39.08;;
56285;SDS011;42191;47.562;9.686;2023-02-22T02:02:55;42.88;;;40.00;;
56285;SDS011;42191;47.562;9.686;2023-02-22T02:05:24;37.33;;;34.92;;
56285;SDS011;42191;47.562;9.686;2023-02-22T02:07:52;43.30;;;40.10;;
56285;SDS011;42191;47.562;9.686;2023-02-22T02:10:18;40.33;;;37.70;;
56285;SDS011;42191;47.562;9.686;2023-02-22T02:12:45;42.60;;;39.70;;
56285;SDS011;42191;47.562;9.686;2023-02-22T02:15:27;43.47;;;40.40;;
56285;SDS011;42191;47.562;9.686;2023-02-22T02:17:56;43.23;;;40.40;;
56285;SDS011;42191;47.562;9.686;2023-02-22T02:26:00;41.28;;;38.65;;
56285;SDS011;42191;47.562;9.686;2023-02-22T02:29:10;41.55;;;38.75;;
56285;SDS011;42191;47.562;9.686;2023-02-22T02:34:57;43.35;;;40.55;;
56285;SDS011;42191;47.562;9.686;2023-02-22T02:38:06;44.60;;;41.50;;
56285;SDS011;42191;47.562;9.686;2023-02-22T02:40:44;40.13;;;37.53;;
56285;SDS011;42191;47.562;9.686;2023-02-22T02:43:38;41.83;;;39.00;;
56285;SDS011;42191;47.562;9.686;2023-02-22T02:46:10;42.10;;;39.33;;
56285;SDS011;42191;47.562;9.686;2023-02-22T02:48:48;40.28;;;37.78;;
56285;SDS011;42191;47.562;9.686;2023-02-22T02:51:21;43.08;;;40.28;;
56285;SDS011;42191;47.562;9.686;2023-02-22T02:53:52;43.97;;;41.08;;
56285;SDS011;42191;47.562;9.686;2023-02-22T02:56:19;42.17;;;39.38;;
56285;SDS011;42191;47.562;9.686;2023-02-22T02:58:51;43.60;;;40.60;;
56285;SDS011;42191;47.562;9.686;2023-02-22T03:06:47;43.20;;;40.40;;
56285;SDS011;42191;47.562;9.686;2023-02-22T03:25:42;42.95;;;40.05;;
56285;SDS011;42191;47.562;9.686;2023-02-22T03:28:15;42.50;;;39.53;;
56285;SDS011;42191;47.562;9.686;2023-02-22T03:33:13;43.05;;;40.15;;
56285;SDS011;42191;47.562;9.686;2023-02-22T03:36:02;42.30;;;39.50;;
56285;SDS011;42191;47.562;9.686;2023-02-22T03:38:36;43.45;;;40.30;;
56285;SDS011;42191;47.562;9.686;2023-02-22T03:41:05;42.60;;;39.83;;
56285;SDS011;42191;47.562;9.686;2023-02-22T03:43:35;43.85;;;40.95;;
56285;SDS011;42191;47.562;9.686;2023-02-22T03:46:12;42.70;;;39.97;;
56285;SDS011;42191;47.562;9.686;2023-02-22T03:48:59;42.67;;;39.88;;
56285;SDS011;42191;47.562;9.686;2023-02-22T03:51:35;43.47;;;40.67;;
56285;SDS011;42191;47.562;9.686;2023-02-22T03:54:03;43.85;;;40.80;;
56285;SDS011;42191;47.562;9.686;2023-02-22T03:56:32;41.72;;;38.92;;
56285;SDS011;42191;47.562;9.686;2023-02-22T03:59:04;42.45;;;39.75;;
56285;SDS011;42191;47.562;9.686;2023-02-22T04:01:33;42.63;;;39.83;;
56285;SDS011;42191;47.562;9.686;2023-02-22T04:04:00;41.33;;;38.55;;
56285;SDS011;42191;47.562;9.686;2023-02-22T04:06:27;43.35;;;40.45;;
56285;SDS011;42191;47.562;9.686;2023-02-22T04:08:53;41.20;;;38.50;;
56285;SDS011;42191;47.562;9.686;2023-02-22T04:11:19;43.90;;;41.00;;
56285;SDS011;42191;47.562;9.686;2023-02-22T04:13:46;42.58;;;39.83;;
56285;SDS011;42191;47.562;9.686;2023-02-22T04:16:12;41.83;;;39.13;;
56285;SDS011;42191;47.562;9.686;2023-02-22T04:18:38;43.50;;;40.75;;
56285;SDS011;42191;47.562;9.686;2023-02-22T04:21:04;43.25;;;40.35;;
56285;SDS011;42191;47.562;9.686;2023-02-22T04:23:30;42.20;;;39.20;;
56285;SDS011;42191;47.562;9.686;2023-02-22T04:25:56;42.15;;;39.47;;
56285;SDS011;42191;47.562;9.686;2023-02-22T04:28:22;43.97;;;41.17;;
56285;SDS011;42191;47.562;9.686;2023-02-22T04:30:48;42.60;;;39.80;;
56285;SDS011;42191;47.562;9.686;2023-02-22T04:33:14;42.22;;;39.38;;
56285;SDS011;42191;47.562;9.686;2023-02-22T04:35:41;42.38;;;39.67;;
56285;SDS011;42191;47.562;9.686;2023-02-22T04:38:07;41.60;;;38.85;;
56285;SDS011;42191;47.562;9.686;2023-02-22T04:40:36;43.00;;;40.20;;
56285;SDS011;42191;47.562;9.686;2023-02-22T04:43:02;42.58;;;39.78;;
56285;SDS011;42191;47.562;9.686;2023-02-22T04:45:28;43.92;;;40.92;;
56285;SDS011;42191;47.562;9.686;2023-02-22T04:47:54;42.08;;;39.28;;
56285;SDS011;42191;47.562;9.686;2023-02-22T04:50:20;42.25;;;39.35;;
56285;SDS011;42191;47.562;9.686;2023-02-22T04:52:46;43.83;;;40.72;;
56285;SDS011;42191;47.562;9.686;2023-02-22T04:55:13;43.13;;;40.25;;
56285;SDS011;42191;47.562;9.686;2023-02-22T04:57:40;42.22;;;39.45;;
56285;SDS011;42191;47.562;9.686;2023-02-22T05:00:06;42.25;;;39.45;;
56285;SDS011;42191;47.562;9.686;2023-02-22T05:02:34;42.47;;;39.67;;
56285;SDS011;42191;47.562;9.686;2023-02-22T05:05:04;43.30;;;40.42;;
56285;SDS011;42191;47.562;9.686;2023-02-22T05:07:30;43.40;;;40.60;;
56285;SDS011;42191;47.562;9.686;2023-02-22T05:09:56;42.25;;;39.58;;
56285;SDS011;42191;47.562;9.686;2023-02-22T05:12:22;42.55;;;39.75;;
56285;SDS011;42191;47.562;9.686;2023-02-22T05:14:50;42.75;;;39.95;;
56285;SDS011;42191;47.562;9.686;2023-02-22T05:17:16;44.08;;;41.20;;
56285;SDS011;42191;47.562;9.686;2023-02-22T05:19:43;42.90;;;40.10;;
56285;SDS011;42191;47.562;9.686;2023-02-22T05:22:09;42.55;;;39.85;;
56285;SDS011;42191;47.562;9.686;2023-02-22T05:24:35;43.00;;;40.20;;
56285;SDS011;42191;47.562;9.686;2023-02-22T05:27:01;43.38;;;40.55;;
56285;SDS011;42191;47.562;9.686;2023-02-22T05:29:27;44.42;;;41.53;;
56285;SDS011;42191;47.562;9.686;2023-02-22T05:31:53;44.33;;;41.53;;
56285;SDS011;42191;47.562;9.686;2023-02-22T05:34:19;43.53;;;40.63;;
56285;SDS011;42191;47.562;9.686;2023-02-22T05:36:45;43.50;;;40.42;;
56285;SDS011;42191;47.562;9.686;2023-02-22T05:39:11;44.95;;;41.95;;
56285;SDS011;42191;47.562;9.686;2023-02-22T05:41:37;44.15;;;41.35;;
56285;SDS011;42191;47.562;9.686;2023-02-22T05:44:04;43.83;;;40.88;;
56285;SDS011;42191;47.562;9.686;2023-02-22T05:46:30;43.50;;;40.70;;
56285;SDS011;42191;47.562;9.686;2023-02-22T05:48:56;43.90;;;41.00;;
56285;SDS011;42191;47.562;9.686;2023-02-22T05:51:22;43.63;;;40.75;;
56285;SDS011;42191;47.562;9.686;2023-02-22T05:53:48;41.50;;;38.80;;
56285;SDS011;42191;47.562;9.686;2023-02-22T05:56:19;43.67;;;40.78;;
56285;SDS011;42191;47.562;9.686;2023-02-22T05:58:50;44.22;;;41.35;;
56285;SDS011;42191;47.562;9.686;2023-02-22T06:01:17;44.03;;;41.22;;
56285;SDS011;42191;47.562;9.686;2023-02-22T06:03:46;43.42;;;40.63;;
56285;SDS011;42191;47.562;9.686;2023-02-22T06:06:13;41.97;;;39.17;;
56285;SDS011;42191;47.562;9.686;2023-02-22T06:08:40;41.15;;;38.55;;
56285;SDS011;42191;47.562;9.686;2023-02-22T06:11:06;42.60;;;39.67;;
56285;SDS011;42191;47.562;9.686;2023-02-22T06:13:35;44.55;;;41.50;;
56285;SDS011;42191;47.562;9.686;2023-02-22T06:16:02;42.63;;;39.92;;
56285;SDS011;42191;47.562;9.686;2023-02-22T06:18:28;41.08;;;38.38;;
56285;SDS011;42191;47.562;9.686;2023-02-22T06:20:55;43.20;;;40.40;;
56285;SDS011;42191;47.562;9.686;2023-02-22T06:23:22;41.10;;;38.55;;
56285;SDS011;42191;47.562;9.686;2023-02-22T06:25:49;40.88;;;38.28;;
56285;SDS011;42191;47.562;9.686;2023-02-22T06:28:15;42.63;;;39.75;;
56285;SDS011;42191;47.562;9.686;2023-02-22T06:30:41;43.15;;;40.25;;
56285;SDS011;42191;47.562;9.686;2023-02-22T06:33:07;43.10;;;40.30;;
56285;SDS011;42191;47.562;9.686;2023-02-22T06:35:34;43.17;;;40.28;;
56285;SDS011;42191;47.562;9.686;2023-02-22T06:38:00;42.53;;;39.45;;
56285;SDS011;42191;47.562;9.686;2023-02-22T06:40:26;43.90;;;41.00;;
56285;SDS011;42191;47.562;9.686;2023-02-22T06:42:53;41.63;;;38.83;;
56285;SDS011;42191;47.562;9.686;2023-02-22T06:45:20;43.13;;;40.13;;
56285;SDS011;42191;47.562;9.686;2023-02-22T06:47:47;42.03;;;39.33;;
56285;SDS011;42191;47.562;9.686;2023-02-22T06:50:21;42.63;;;39.72;;
56285;SDS011;42191;47.562;9.686;2023-02-22T06:52:54;41.85;;;39.15;;
56285;SDS011;42191;47.562;9.686;2023-02-22T06:55:21;42.90;;;39.72;;
56285;SDS011;42191;47.562;9.686;2023-02-22T06:57:49;40.53;;;38.03;;
56285;SDS011;42191;47.562;9.686;2023-02-22T07:00:20;42.22;;;39.53;;
56285;SDS011;42191;47.562;9.686;2023-02-22T07:05:18;39.25;;;36.75;;
56285;SDS011;42191;47.562;9.686;2023-02-22T07:07:46;41.38;;;38.78;;
56285;SDS011;42191;47.562;9.686;2023-02-22T07:10:18;43.40;;;40.50;;
56285;SDS011;42191;47.562;9.686;2023-02-22T07:12:46;42.00;;;39.30;;
56285;SDS011;42191;47.562;9.686;2023-02-22T07:15:13;42.17;;;39.28;;
56285;SDS011;42191;47.562;9.686;2023-02-22T07:17:42;43.83;;;40.83;;
56285;SDS011;42191;47.562;9.686;2023-02-22T07:20:08;42.95;;;39.95;;
56285;SDS011;42191;47.562;9.686;2023-02-22T07:22:35;41.55;;;38.58;;
56285;SDS011;42191;47.562;9.686;2023-02-22T07:25:04;43.17;;;40.10;;
56285;SDS011;42191;47.562;9.686;2023-02-22T07:27:30;43.38;;;40.08;;
56285;SDS011;42191;47.562;9.686;2023-02-22T07:29:57;43.03;;;39.85;;
56285;SDS011;42191;47.562;9.686;2023-02-22T07:32:23;40.67;;;37.67;;
56285;SDS011;42191;47.562;9.686;2023-02-22T07:34:49;39.92;;;37.22;;
56285;SDS011;42191;47.562;9.686;2023-02-22T07:37:15;42.00;;;39.22;;
56285;SDS011;42191;47.562;9.686;2023-02-22T07:39:41;40.45;;;37.85;;
56285;SDS011;42191;47.562;9.686;2023-02-22T07:42:08;38.33;;;35.83;;
56285;SDS011;42191;47.562;9.686;2023-02-22T07:44:34;39.15;;;36.55;;
56285;SDS011;42191;47.562;9.686;2023-02-22T07:47:01;40.88;;;38.30;;
56285;SDS011;42191;47.562;9.686;2023-02-22T07:49:27;41.55;;;38.63;;
56285;SDS011;42191;47.562;9.686;2023-02-22T07:51:53;39.72;;;37.13;;
56285;SDS011;42191;47.562;9.686;2023-02-22T07:54:19;38.83;;;36.38;;
56285;SDS011;42191;47.562;9.686;2023-02-22T07:56:46;40.03;;;37.42;;
56285;SDS011;42191;47.562;9.686;2023-02-22T07:59:13;41.13;;;38.13;;
56285;SDS011;42191;47.562;9.686;2023-02-22T08:01:40;38.42;;;35.92;;
56285;SDS011;42191;47.562;9.686;2023-02-22T08:04:06;41.22;;;38.53;;
56285;SDS011;42191;47.562;9.686;2023-02-22T08:06:32;39.53;;;36.92;;
56285;SDS011;42191;47.562;9.686;2023-02-22T08:08:58;40.85;;;38.10;;
56285;SDS011;42191;47.562;9.686;2023-02-22T08:11:25;40.90;;;38.25;;
56285;SDS011;42191;47.562;9.686;2023-02-22T08:13:51;41.00;;;38.28;;
56285;SDS011;42191;47.562;9.686;2023-02-22T08:16:17;40.33;;;37.63;;
56285;SDS011;42191;47.562;9.686;2023-02-22T08:18:43;40.55;;;37.85;;
56285;SDS011;42191;47.562;9.686;2023-02-22T08:21:09;39.03;;;36.40;;
56285;SDS011;42191;47.562;9.686;2023-02-22T08:23:35;38.53;;;36.03;;
56285;SDS011;42191;47.562;9.686;2023-02-22T08:26:05;40.42;;;37.53;;
56285;SDS011;42191;47.562;9.686;2023-02-22T08:28:32;39.25;;;36.55;;
56285;SDS011;42191;47.562;9.686;2023-02-22T08:30:59;38.50;;;36.10;;
56285;SDS011;42191;47.562;9.686;2023-02-22T08:33:25;38.05;;;35.55;;
56285;SDS011;42191;47.562;9.686;2023-02-22T08:35:51;40.42;;;37.53;;
56285;SDS011;42191;47.562;9.686;2023-02-22T08:38:19;41.75;;;38.88;;
56285;SDS011;42191;47.562;9.686;2023-02-22T08:40:48;40.15;;;37.55;;
56285;SDS011;42191;47.562;9.686;2023-02-22T08:43:15;39.92;;;37.13;;
56285;SDS011;42191;47.562;9.686;2023-02-22T08:45:42;40.33;;;37.63;;
56285;SDS011;42191;47.562;9.686;2023-02-22T08:48:09;41.47;;;38.67;;
56285;SDS011;42191;47.562;9.686;2023-02-22T08:50:37;39.25;;;36.55;;
56285;SDS011;42191;47.562;9.686;2023-02-22T08:53:06;39.97;;;37.33;;
56285;SDS011;42191;47.562;9.686;2023-02-22T08:55:34;39.45;;;36.80;;
56285;SDS011;42191;47.562;9.686;2023-02-22T08:58:02;40.42;;;37.53;;
56285;SDS011;42191;47.562;9.686;2023-02-22T09:00:31;39.45;;;36.67;;
56285;SDS011;42191;47.562;9.686;2023-02-22T09:02:58;41.20;;;38.50;;
56285;SDS011;42191;47.562;9.686;2023-02-22T09:05:25;36.05;;;33.75;;
56285;SDS011;42191;47.562;9.686;2023-02-22T09:07:51;38.42;;;35.92;;
56285;SDS011;42191;47.562;9.686;2023-02-22T09:10:21;40.20;;;37.53;;
56285;SDS011;42191;47.562;9.686;2023-02-22T09:12:49;38.90;;;36.38;;
56285;SDS011;42191;47.562;9.686;2023-02-22T09:15:16;39.90;;;36.97;;
56285;SDS011;42191;47.562;9.686;2023-02-22T09:17:43;40.33;;;37.53;;
56285;SDS011;42191;47.562;9.686;2023-02-22T09:20:09;38.63;;;36.08;;
56285;SDS011;42191;47.562;9.686;2023-02-22T09:22:36;40.17;;;37.58;;
56285;SDS011;42191;47.562;9.686;2023-02-22T09:25:03;38.78;;;36.17;;
56285;SDS011;42191;47.562;9.686;2023-02-22T09:27:29;39.35;;;36.55;;
56285;SDS011;42191;47.562;9.686;2023-02-22T09:29:56;39.08;;;36.40;;
56285;SDS011;42191;47.562;9.686;2023-02-22T09:32:22;40.92;;;38.22;;
56285;SDS011;42191;47.562;9.686;2023-02-22T09:34:51;41.90;;;39.00;;
56285;SDS011;42191;47.562;9.686;2023-02-22T09:37:18;39.15;;;36.45;;
56285;SDS011;42191;47.562;9.686;2023-02-22T09:39:44;39.15;;;36.55;;
56285;SDS011;42191;47.562;9.686;2023-02-22T09:42:11;40.22;;;37.53;;
56285;SDS011;42191;47.562;9.686;2023-02-22T09:47:40;37.75;;;35.33;;
56285;SDS011;42191;47.562;9.686;2023-02-22T09:50:19;36.35;;;33.85;;
56285;SDS011;42191;47.562;9.686;2023-02-22T09:55:41;40.92;;;38.13;;
56285;SDS011;42191;47.562;9.686;2023-02-22T10:01:48;40.25;;;37.55;;
56285;SDS011;42191;47.562;9.686;2023-02-22T10:04:10;39.30;;;36.65;;
56285;SDS011;42191;47.562;9.686;2023-02-22T10:09:44;38.95;;;36.33;;
56285;SDS011;42191;47.562;9.686;2023-02-22T10:19:48;40.03;;;37.25;;
56285;SDS011;42191;47.562;9.686;2023-02-22T10:25:13;38.97;;;36.42;;
56285;SDS011;42191;47.562;9.686;2023-02-22T10:27:50;39.42;;;36.83;;
56285;SDS011;42191;47.562;9.686;2023-02-22T10:32:50;37.30;;;34.78;;
56285;SDS011;42191;47.562;9.686;2023-02-22T10:35:38;39.28;;;36.63;;
56285;SDS011;42191;47.562;9.686;2023-02-22T10:38:16;37.85;;;35.33;;
56285;SDS011;42191;47.562;9.686;2023-02-22T10:40:48;39.00;;;36.00;;
56285;SDS011;42191;47.562;9.686;2023-02-22T10:43:18;37.85;;;35.35;;
56285;SDS011;42191;47.562;9.686;2023-02-22T10:45:45;38.40;;;35.88;;
56285;SDS011;42191;47.562;9.686;2023-02-22T10:48:13;38.33;;;35.88;;
56285;SDS011;42191;47.562;9.686;2023-02-22T10:50:42;41.75;;;38.58;;
56285;SDS011;42191;47.562;9.686;2023-02-22T10:53:10;40.42;;;37.70;;
56285;SDS011;42191;47.562;9.686;2023-02-22T10:58:38;40.53;;;37.83;;
56285;SDS011;42191;47.562;9.686;2023-02-22T11:01:17;39.03;;;36.38;;
56285;SDS011;42191;47.562;9.686;2023-02-22T11:03:47;38.38;;;35.85;;
56285;SDS011;42191;47.562;9.686;2023-02-22T11:06:21;40.58;;;37.83;;
56285;SDS011;42191;47.562;9.686;2023-02-22T11:08:47;40.45;;;37.53;;
56285;SDS011;42191;47.562;9.686;2023-02-22T11:11:25;40.45;;;37.67;;
56285;SDS011;42191;47.562;9.686;2023-02-22T11:13:53;39.13;;;36.63;;
56285;SDS011;42191;47.562;9.686;2023-02-22T11:16:34;39.35;;;36.72;;
56285;SDS011;42191;47.562;9.686;2023-02-22T11:19:08;38.75;;;36.15;;
56285;SDS011;42191;47.562;9.686;2023-02-22T11:21:36;40.60;;;37.80;;
56285;SDS011;42191;47.562;9.686;2023-02-22T11:24:08;39.50;;;36.90;;
56285;SDS011;42191;47.562;9.686;2023-02-22T11:26:47;37.90;;;35.30;;
56285;SDS011;42191;47.562;9.686;2023-02-22T11:29:21;40.55;;;37.60;;
56285;SDS011;42191;47.562;9.686;2023-02-22T11:31:53;38.90;;;36.05;;
56285;SDS011;42191;47.562;9.686;2023-02-22T11:34:27;39.47;;;36.85;;
56285;SDS011;42191;47.562;9.686;2023-02-22T11:36:54;39.38;;;36.67;;
56285;SDS011;42191;47.562;9.686;2023-02-22T11:39:22;39.95;;;37.35;;
56285;SDS011;42191;47.562;9.686;2023-02-22T11:41:54;38.85;;;36.20;;
56285;SDS011;42191;47.562;9.686;2023-02-22T11:44:27;39.15;;;36.50;;
56285;SDS011;42191;47.562;9.686;2023-02-22T11:46:55;39.38;;;36.67;;
56285;SDS011;42191;47.562;9.686;2023-02-22T11:49:32;40.90;;;38.00;;
56285;SDS011;42191;47.562;9.686;2023-02-22T11:52:22;38.95;;;36.25;;
56285;SDS011;42191;47.562;9.686;2023-02-22T11:55:08;39.27;;;36.70;;
56285;SDS011;42191;47.562;9.686;2023-02-22T12:03:30;38.83;;;36.22;;
56285;SDS011;42191;47.562;9.686;2023-02-22T12:06:19;39.33;;;36.55;;
56285;SDS011;42191;47.562;9.686;2023-02-22T12:17:06;38.05;;;35.33;;
56285;SDS011;42191;47.562;9.686;2023-02-22T12:19:38;39.10;;;36.55;;
56285;SDS011;42191;47.562;9.686;2023-02-22T12:22:30;39.13;;;36.53;;
56285;SDS011;42191;47.562;9.686;2023-02-22T12:25:12;38.97;;;36.28;;
56285;SDS011;42191;47.562;9.686;2023-02-22T12:27:46;38.17;;;35.58;;
56285;SDS011;42191;47.562;9.686;2023-02-22T12:32:52;37.90;;;35.40;;
56285;SDS011;42191;47.562;9.686;2023-02-22T12:35:27;37.72;;;35.17;;
56285;SDS011;42191;47.562;9.686;2023-02-22T12:43:44;38.55;;;35.90;;
56285;SDS011;42191;47.562;9.686;2023-02-22T12:46:26;38.50;;;35.72;;
56285;SDS011;42191;47.562;9.686;2023-02-22T12:51:48;38.63;;;36.00;;
56285;SDS011;42191;47.562;9.686;2023-02-22T12:57:28;37.70;;;35.20;;
56285;SDS011;42191;47.562;9.686;2023-02-22T13:02:42;38.00;;;35.40;;
56285;SDS011;42191;47.562;9.686;2023-02-22T13:05:18;38.22;;;35.67;;
56285;SDS011;42191;47.562;9.686;2023-02-22T13:15:56;38.25;;;35.50;;
56285;SDS011;42191;47.562;9.686;2023-02-22T13:27:02;38.13;;;35.40;;
56285;SDS011;42191;47.562;9.686;2023-02-22T13:29:40;39.28;;;36.38;;
56285;SDS011;42191;47.562;9.686;2023-02-22T13:35:14;37.83;;;35.03;;
56285;SDS011;42191;47.562;9.686;2023-02-22T13:52:38;38.95;;;36.15;;
56285;SDS011;42191;47.562;9.686;2023-02-22T13:55:14;39.25;;;36.35;;
56285;SDS011;42191;47.562;9.686;2023-02-22T13:57:45;39.38;;;36.47;;
56285;SDS011;42191;47.562;9.686;2023-02-22T14:02:59;40.30;;;37.28;;
56285;SDS011;42191;47.562;9.686;2023-02-22T14:08:51;39.30;;;36.13;;
56285;SDS011;42191;47.562;9.686;2023-02-22T14:16:22;37.63;;;34.83;;
56285;SDS011;42191;47.562;9.686;2023-02-22T14:19:35;37.45;;;34.60;;
56285;SDS011;42191;47.562;9.686;2023-02-22T14:24:21;38.10;;;35.38;;
56285;SDS011;42191;47.562;9.686;2023-02-22T14:26:54;37.80;;;35.10;;
56285;SDS011;42191;47.562;9.686;2023-02-22T14:29:27;38.38;;;35.55;;
56285;SDS011;42191;47.562;9.686;2023-02-22T14:32:00;38.95;;;35.97;;
56285;SDS011;42191;47.562;9.686;2023-02-22T14:34:45;38.35;;;35.45;;
56285;SDS011;42191;47.562;9.686;2023-02-22T14:39:53;38.38;;;35.10;;
56285;SDS011;42191;47.562;9.686;2023-02-22T14:43:11;39.47;;;36.47;;
56285;SDS011;42191;47.562;9.686;2023-02-22T14:45:35;38.05;;;35.25;;
56285;SDS011;42191;47.562;9.686;2023-02-22T14:51:06;37.70;;;35.00;;
56285;SDS011;42191;47.562;9.686;2023-02-22T14:59:15;37.72;;;34.60;;
56285;SDS011;42191;47.562;9.686;2023-02-22T15:01:43;36.03;;;33.40;;
56285;SDS011;42191;47.562;9.686;2023-02-22T15:06:50;37.53;;;34.80;;
56285;SDS011;42191;47.562;9.686;2023-02-22T15:09:22;36.53;;;33.92;;
56285;SDS011;42191;47.562;9.686;2023-02-22T15:14:29;37.78;;;34.58;;
56285;SDS011;42191;47.562;9.686;2023-02-22T15:17:02;36.92;;;34.33;;
56285;SDS011;42191;47.562;9.686;2023-02-22T15:19:37;37.38;;;34.58;;
56285;SDS011;42191;47.562;9.686;2023-02-22T15:22:04;38.38;;;35.38;;
56285;SDS011;42191;47.562;9.686;2023-02-22T15:24:42;37.25;;;34.55;;
56285;SDS011;42191;47.562;9.686;2023-02-22T15:27:13;36.10;;;33.42;;
56285;SDS011;42191;47.562;9.686;2023-02-22T15:29:43;36.67;;;33.88;;
56285;SDS011;42191;47.562;9.686;2023-02-22T15:34:54;36.92;;;34.33;;
56285;SDS011;42191;47.562;9.686;2023-02-22T15:37:29;37.35;;;34.35;;
56285;SDS011;42191;47.562;9.686;2023-02-22T15:40:06;38.85;;;36.05;;
56285;SDS011;42191;47.562;9.686;2023-02-22T15:42:48;36.10;;;33.40;;
56285;SDS011;42191;47.562;9.686;2023-02-22T15:45:22;42.60;;;38.90;;
56285;SDS011;42191;47.562;9.686;2023-02-22T15:47:50;56.70;;;50.88;;
56285;SDS011;42191;47.562;9.686;2023-02-22T15:55:47;38.78;;;35.83;;
56285;SDS011;42191;47.562;9.686;2023-02-22T15:58:24;38.60;;;35.50;;
56285;SDS011;42191;47.562;9.686;2023-02-22T16:03:36;39.40;;;36.25;;
56285;SDS011;42191;47.562;9.686;2023-02-22T16:06:13;39.38;;;36.53;;
56285;SDS011;42191;47.562;9.686;2023-02-22T16:08:58;38.72;;;35.92;;
56285;SDS011;42191;47.562;9.686;2023-02-22T16:11:50;39.78;;;36.80;;
56285;SDS011;42191;47.562;9.686;2023-02-22T16:14:42;38.70;;;35.78;;
56285;SDS011;42191;47.562;9.686;2023-02-22T16:17:10;39.05;;;35.95;;
56285;SDS011;42191;47.562;9.686;2023-02-22T16:19:40;39.30;;;36.40;;
56285;SDS011;42191;47.562;9.686;2023-02-22T16:24:52;40.17;;;36.78;;
56285;SDS011;42191;47.562;9.686;2023-02-22T16:27:39;38.83;;;36.03;;
56285;SDS011;42191;47.562;9.686;2023-02-22T16:32:52;40.05;;;37.15;;
56285;SDS011;42191;47.562;9.686;2023-02-22T16:35:20;40.83;;;37.83;;
56285;SDS011;42191;47.562;9.686;2023-02-22T16:37:56;40.35;;;37.25;;
56285;SDS011;42191;47.562;9.686;2023-02-22T16:40:29;40.35;;;37.35;;
56285;SDS011;42191;47.562;9.686;2023-02-22T16:43:12;39.00;;;36.15;;
56285;SDS011;42191;47.562;9.686;2023-02-22T16:45:41;40.28;;;37.30;;
56285;SDS011;42191;47.562;9.686;2023-02-22T16:48:12;40.78;;;37.75;;
56285;SDS011;42191;47.562;9.686;2023-02-22T16:50:40;39.30;;;36.10;;
56285;SDS011;42191;47.562;9.686;2023-02-22T16:53:06;40.58;;;37.25;;
56285;SDS011;42191;47.562;9.686;2023-02-22T16:55:32;42.72;;;39.25;;
56285;SDS011;42191;47.562;9.686;2023-02-22T16:58:00;39.65;;;36.75;;
56285;SDS011;42191;47.562;9.686;2023-02-22T17:00:28;39.30;;;36.40;;
56285;SDS011;42191;47.562;9.686;2023-02-22T17:02:59;43.50;;;40.05;;
56285;SDS011;42191;47.562;9.686;2023-02-22T17:05:30;42.83;;;39.53;;
56285;SDS011;42191;47.562;9.686;2023-02-22T17:08:00;43.05;;;39.75;;
56285;SDS011;42191;47.562;9.686;2023-02-22T17:10:26;41.55;;;38.47;;
56285;SDS011;42191;47.562;9.686;2023-02-22T17:12:53;43.28;;;39.97;;
56285;SDS011;42191;47.562;9.686;2023-02-22T17:15:21;43.90;;;40.40;;
56285;SDS011;42191;47.562;9.686;2023-02-22T17:17:52;41.75;;;38.45;;
56285;SDS011;42191;47.562;9.686;2023-02-22T17:20:19;43.92;;;40.50;;
56285;SDS011;42191;47.562;9.686;2023-02-22T17:22:53;40.33;;;37.25;;
56285;SDS011;42191;47.562;9.686;2023-02-22T17:25:26;44.05;;;40.55;;
56285;SDS011;42191;47.562;9.686;2023-02-22T17:28:00;41.97;;;38.75;;
56285;SDS011;42191;47.562;9.686;2023-02-22T17:30:26;42.22;;;38.83;;
56285;SDS011;42191;47.562;9.686;2023-02-22T17:32:55;42.45;;;39.25;;
56285;SDS011;42191;47.562;9.686;2023-02-22T17:35:27;43.42;;;40.15;;
56285;SDS011;42191;47.562;9.686;2023-02-22T17:37:55;43.88;;;40.55;;